sensor_id;sensor_type;location;lat;lon;timestamp;temperature;humidity
45619;DHT22;31343;47.520;19.144;2023-04-29T00:02:11;12.80;99.90
45619;DHT22;31343;47.520;19.144;2023-04-29T00:04:37;12.80;99.90
45619;DHT22;31343;47.520;19.144;2023-04-29T00:07:03;12.70;99.90
45619;DHT22;31343;47.520;19.144;2023-04-29T00:09:28;12.70;99.90
45619;DHT22;31343;47.520;19.144;2023-04-29T00:11:55;12.70;99.90
45619;DHT22;31343;47.520;19.144;2023-04-29T00:14:21;12.70;99.90
45619;DHT22;31343;47.520;19.144;2023-04-29T00:16:47;12.70;99.90
45619;DHT22;31343;47.520;19.144;2023-04-29T00:19:12;12.60;99.90
45619;DHT22;31343;47.520;19.144;2023-04-29T00:21:38;12.70;99.90
45619;DHT22;31343;47.520;19.144;2023-04-29T00:24:04;12.60;99.90
45619;DHT22;31343;47.520;19.144;2023-04-29T00:26:30;12.50;99.90
45619;DHT22;31343;47.520;19.144;2023-04-29T00:28:56;12.40;99.90
45619;DHT22;31343;47.520;19.144;2023-04-29T00:31:22;12.40;99.90
45619;DHT22;31343;47.520;19.144;2023-04-29T00:33:48;12.40;99.90
45619;DHT22;31343;47.520;19.144;2023-04-29T00:36:13;12.40;99.90
45619;DHT22;31343;47.520;19.144;2023-04-29T00:38:39;12.40;99.90
45619;DHT22;31343;47.520;19.144;2023-04-29T00:41:05;12.40;99.90
45619;DHT22;31343;47.520;19.144;2023-04-29T00:43:31;12.40;99.90
45619;DHT22;31343;47.520;19.144;2023-04-29T00:45:57;12.30;99.90
45619;DHT22;31343;47.520;19.144;2023-04-29T00:48:22;12.30;99.90
45619;DHT22;31343;47.520;19.144;2023-04-29T00:50:48;12.30;99.90
45619;DHT22;31343;47.520;19.144;2023-04-29T00:53:15;12.30;99.90
45619;DHT22;31343;47.520;19.144;2023-04-29T00:55:43;12.30;99.90
45619;DHT22;31343;47.520;19.144;2023-04-29T00:58:11;12.30;99.90
45619;DHT22;31343;47.520;19.144;2023-04-29T01:00:37;12.30;99.90
45619;DHT22;31343;47.520;19.144;2023-04-29T01:03:04;12.20;99.90
45619;DHT22;31343;47.520;19.144;2023-04-29T01:05:30;12.20;99.90
45619;DHT22;31343;47.520;19.144;2023-04-29T01:10:56;12.30;99.90
45619;DHT22;31343;47.520;19.144;2023-04-29T01:13:45;12.30;99.90
45619;DHT22;31343;47.520;19.144;2023-04-29T01:16:22;12.30;99.90
45619;DHT22;31343;47.520;19.144;2023-04-29T01:18:53;12.20;99.90
45619;DHT22;31343;47.520;19.144;2023-04-29T01:21:20;12.20;99.90
45619;DHT22;31343;47.520;19.144;2023-04-29T01:23:46;12.30;99.90
45619;DHT22;31343;47.520;19.144;2023-04-29T01:26:12;12.20;99.90
45619;DHT22;31343;47.520;19.144;2023-04-29T01:31:50;12.30;99.90
45619;DHT22;31343;47.520;19.144;2023-04-29T01:34:22;12.30;99.90
45619;DHT22;31343;47.520;19.144;2023-04-29T01:37:01;12.30;99.90
45619;DHT22;31343;47.520;19.144;2023-04-29T01:42:38;12.40;99.90
45619;DHT22;31343;47.520;19.144;2023-04-29T01:45:07;12.40;99.90
45619;DHT22;31343;47.520;19.144;2023-04-29T01:47:33;12.30;99.90
45619;DHT22;31343;47.520;19.144;2023-04-29T01:50:00;12.30;99.90
45619;DHT22;31343;47.520;19.144;2023-04-29T01:52:27;12.30;99.90
45619;DHT22;31343;47.520;19.144;2023-04-29T01:54:53;12.20;99.90
45619;DHT22;31343;47.520;19.144;2023-04-29T01:57:19;12.20;99.90
45619;DHT22;31343;47.520;19.144;2023-04-29T01:59:44;12.20;99.90
45619;DHT22;31343;47.520;19.144;2023-04-29T02:02:10;12.20;99.90
45619;DHT22;31343;47.520;19.144;2023-04-29T02:04:36;12.20;99.90
45619;DHT22;31343;47.520;19.144;2023-04-29T02:07:02;12.20;99.90
45619;DHT22;31343;47.520;19.144;2023-04-29T02:09:28;12.10;99.90
45619;DHT22;31343;47.520;19.144;2023-04-29T02:11:54;12.10;99.90
45619;DHT22;31343;47.520;19.144;2023-04-29T02:14:20;12.00;99.90
45619;DHT22;31343;47.520;19.144;2023-04-29T02:16:46;12.10;99.90
45619;DHT22;31343;47.520;19.144;2023-04-29T02:19:12;12.00;99.90
45619;DHT22;31343;47.520;19.144;2023-04-29T02:21:38;11.90;99.90
45619;DHT22;31343;47.520;19.144;2023-04-29T02:24:06;11.90;99.90
45619;DHT22;31343;47.520;19.144;2023-04-29T02:26:32;11.90;99.90
45619;DHT22;31343;47.520;19.144;2023-04-29T02:28:59;12.00;99.90
45619;DHT22;31343;47.520;19.144;2023-04-29T02:31:25;12.00;99.90
45619;DHT22;31343;47.520;19.144;2023-04-29T02:33:50;11.90;99.90
45619;DHT22;31343;47.520;19.144;2023-04-29T02:36:16;11.90;99.90
45619;DHT22;31343;47.520;19.144;2023-04-29T02:38:43;11.90;99.90
45619;DHT22;31343;47.520;19.144;2023-04-29T02:41:08;11.90;99.90
45619;DHT22;31343;47.520;19.144;2023-04-29T02:43:34;11.80;99.90
45619;DHT22;31343;47.520;19.144;2023-04-29T02:46:01;11.90;99.90
45619;DHT22;31343;47.520;19.144;2023-04-29T02:48:26;11.90;99.90
45619;DHT22;31343;47.520;19.144;2023-04-29T02:50:52;11.90;99.90
45619;DHT22;31343;47.520;19.144;2023-04-29T02:53:18;11.90;99.90
45619;DHT22;31343;47.520;19.144;2023-04-29T02:55:45;11.90;99.90
45619;DHT22;31343;47.520;19.144;2023-04-29T02:58:11;11.90;99.90
45619;DHT22;31343;47.520;19.144;2023-04-29T03:00:40;11.80;99.90
45619;DHT22;31343;47.520;19.144;2023-04-29T03:03:05;11.80;99.90
45619;DHT22;31343;47.520;19.144;2023-04-29T03:05:31;11.80;99.90
45619;DHT22;31343;47.520;19.144;2023-04-29T03:07:58;11.80;99.90
45619;DHT22;31343;47.520;19.144;2023-04-29T03:10:24;11.80;99.90
45619;DHT22;31343;47.520;19.144;2023-04-29T03:12:49;11.80;99.90
45619;DHT22;31343;47.520;19.144;2023-04-29T03:15:16;11.80;99.90
45619;DHT22;31343;47.520;19.144;2023-04-29T03:17:42;11.80;99.90
45619;DHT22;31343;47.520;19.144;2023-04-29T03:20:10;11.80;99.90
45619;DHT22;31343;47.520;19.144;2023-04-29T03:22:36;11.80;99.90
45619;DHT22;31343;47.520;19.144;2023-04-29T03:25:02;11.80;99.90
45619;DHT22;31343;47.520;19.144;2023-04-29T03:27:28;11.80;99.90
45619;DHT22;31343;47.520;19.144;2023-04-29T03:29:54;11.80;99.90
45619;DHT22;31343;47.520;19.144;2023-04-29T03:32:19;11.90;99.90
45619;DHT22;31343;47.520;19.144;2023-04-29T03:34:45;11.80;99.90
45619;DHT22;31343;47.520;19.144;2023-04-29T03:37:11;11.80;99.90
45619;DHT22;31343;47.520;19.144;2023-04-29T03:39:37;11.80;99.90
45619;DHT22;31343;47.520;19.144;2023-04-29T03:42:03;11.90;99.90
45619;DHT22;31343;47.520;19.144;2023-04-29T03:44:29;11.90;99.90
45619;DHT22;31343;47.520;19.144;2023-04-29T03:46:55;11.90;99.90
45619;DHT22;31343;47.520;19.144;2023-04-29T03:49:20;11.80;99.90
45619;DHT22;31343;47.520;19.144;2023-04-29T03:51:47;11.80;99.90
45619;DHT22;31343;47.520;19.144;2023-04-29T03:54:12;11.80;99.90
45619;DHT22;31343;47.520;19.144;2023-04-29T03:56:38;11.80;99.90
45619;DHT22;31343;47.520;19.144;2023-04-29T03:59:04;11.80;99.90
45619;DHT22;31343;47.520;19.144;2023-04-29T04:01:30;11.80;99.90
45619;DHT22;31343;47.520;19.144;2023-04-29T04:03:55;11.80;99.80
45619;DHT22;31343;47.520;19.144;2023-04-29T04:06:22;11.80;99.90
45619;DHT22;31343;47.520;19.144;2023-04-29T04:08:48;11.80;99.90
45619;DHT22;31343;47.520;19.144;2023-04-29T04:11:14;11.80;99.90
45619;DHT22;31343;47.520;19.144;2023-04-29T04:13:43;11.80;99.90
45619;DHT22;31343;47.520;19.144;2023-04-29T04:16:09;11.90;99.90
45619;DHT22;31343;47.520;19.144;2023-04-29T04:18:38;11.90;99.90
45619;DHT22;31343;47.520;19.144;2023-04-29T04:21:08;11.90;99.90
45619;DHT22;31343;47.520;19.144;2023-04-29T04:23:34;11.80;99.60
45619;DHT22;31343;47.520;19.144;2023-04-29T04:26:00;11.80;99.90
45619;DHT22;31343;47.520;19.144;2023-04-29T04:28:26;11.90;99.90
45619;DHT22;31343;47.520;19.144;2023-04-29T04:30:52;11.80;99.80
45619;DHT22;31343;47.520;19.144;2023-04-29T04:33:17;11.80;99.90
45619;DHT22;31343;47.520;19.144;2023-04-29T04:35:43;11.80;99.90
45619;DHT22;31343;47.520;19.144;2023-04-29T04:38:09;11.80;99.90
45619;DHT22;31343;47.520;19.144;2023-04-29T04:40:36;11.70;99.90
45619;DHT22;31343;47.520;19.144;2023-04-29T04:43:05;11.70;99.90
45619;DHT22;31343;47.520;19.144;2023-04-29T04:45:31;11.60;99.90
45619;DHT22;31343;47.520;19.144;2023-04-29T04:47:57;11.70;99.90
45619;DHT22;31343;47.520;19.144;2023-04-29T04:50:22;11.70;99.90
45619;DHT22;31343;47.520;19.144;2023-04-29T04:52:48;11.60;99.90
45619;DHT22;31343;47.520;19.144;2023-04-29T04:55:14;11.60;99.90
45619;DHT22;31343;47.520;19.144;2023-04-29T04:57:39;11.50;99.90
45619;DHT22;31343;47.520;19.144;2023-04-29T05:00:06;11.40;99.90
45619;DHT22;31343;47.520;19.144;2023-04-29T05:02:32;11.40;99.90
45619;DHT22;31343;47.520;19.144;2023-04-29T05:04:57;11.40;99.90
45619;DHT22;31343;47.520;19.144;2023-04-29T05:07:23;11.40;99.90
45619;DHT22;31343;47.520;19.144;2023-04-29T05:09:49;11.40;99.90
45619;DHT22;31343;47.520;19.144;2023-04-29T05:12:14;11.30;99.90
45619;DHT22;31343;47.520;19.144;2023-04-29T05:14:40;11.30;99.90
45619;DHT22;31343;47.520;19.144;2023-04-29T05:17:06;11.40;99.90
45619;DHT22;31343;47.520;19.144;2023-04-29T05:19:34;11.40;99.90
45619;DHT22;31343;47.520;19.144;2023-04-29T05:22:00;11.50;99.90
45619;DHT22;31343;47.520;19.144;2023-04-29T05:24:25;11.60;99.90
45619;DHT22;31343;47.520;19.144;2023-04-29T05:26:51;11.60;99.90
45619;DHT22;31343;47.520;19.144;2023-04-29T05:29:18;11.60;99.90
45619;DHT22;31343;47.520;19.144;2023-04-29T05:31:44;11.70;99.90
45619;DHT22;31343;47.520;19.144;2023-04-29T05:34:10;11.70;99.90
45619;DHT22;31343;47.520;19.144;2023-04-29T05:36:35;11.70;99.90
45619;DHT22;31343;47.520;19.144;2023-04-29T05:39:02;11.70;99.90
45619;DHT22;31343;47.520;19.144;2023-04-29T05:41:28;11.80;99.90
45619;DHT22;31343;47.520;19.144;2023-04-29T05:43:54;11.80;99.90
45619;DHT22;31343;47.520;19.144;2023-04-29T05:46:20;11.90;99.90
45619;DHT22;31343;47.520;19.144;2023-04-29T05:48:47;11.90;99.90
45619;DHT22;31343;47.520;19.144;2023-04-29T05:51:13;12.00;99.90
45619;DHT22;31343;47.520;19.144;2023-04-29T05:53:38;11.90;99.90
45619;DHT22;31343;47.520;19.144;2023-04-29T05:56:05;11.80;99.90
45619;DHT22;31343;47.520;19.144;2023-04-29T05:58:33;11.90;99.90
45619;DHT22;31343;47.520;19.144;2023-04-29T06:00:59;12.00;99.90
45619;DHT22;31343;47.520;19.144;2023-04-29T06:03:26;12.00;99.90
45619;DHT22;31343;47.520;19.144;2023-04-29T06:05:52;12.00;99.90
45619;DHT22;31343;47.520;19.144;2023-04-29T06:08:18;12.00;99.90
45619;DHT22;31343;47.520;19.144;2023-04-29T06:10:44;12.00;99.90
45619;DHT22;31343;47.520;19.144;2023-04-29T06:13:11;12.00;99.90
45619;DHT22;31343;47.520;19.144;2023-04-29T06:15:38;11.90;99.90
45619;DHT22;31343;47.520;19.144;2023-04-29T06:18:03;11.90;99.90
45619;DHT22;31343;47.520;19.144;2023-04-29T06:20:29;11.90;99.90
45619;DHT22;31343;47.520;19.144;2023-04-29T06:22:55;11.90;99.90
45619;DHT22;31343;47.520;19.144;2023-04-29T06:25:22;11.90;99.90
45619;DHT22;31343;47.520;19.144;2023-04-29T06:27:47;12.00;99.90
45619;DHT22;31343;47.520;19.144;2023-04-29T06:30:13;11.90;99.90
45619;DHT22;31343;47.520;19.144;2023-04-29T06:32:39;11.80;99.90
45619;DHT22;31343;47.520;19.144;2023-04-29T06:35:05;11.80;99.90
45619;DHT22;31343;47.520;19.144;2023-04-29T06:37:31;11.80;99.90
45619;DHT22;31343;47.520;19.144;2023-04-29T06:39:57;11.80;99.90
45619;DHT22;31343;47.520;19.144;2023-04-29T06:42:22;11.90;99.90
45619;DHT22;31343;47.520;19.144;2023-04-29T06:44:48;11.80;99.90
45619;DHT22;31343;47.520;19.144;2023-04-29T06:47:14;11.90;99.90
45619;DHT22;31343;47.520;19.144;2023-04-29T06:49:40;12.00;99.90
45619;DHT22;31343;47.520;19.144;2023-04-29T06:52:08;12.00;99.90
45619;DHT22;31343;47.520;19.144;2023-04-29T06:54:34;11.90;99.90
45619;DHT22;31343;47.520;19.144;2023-04-29T06:57:00;11.80;99.90
45619;DHT22;31343;47.520;19.144;2023-04-29T06:59:26;12.00;99.90
45619;DHT22;31343;47.520;19.144;2023-04-29T07:01:52;12.00;99.90
45619;DHT22;31343;47.520;19.144;2023-04-29T07:04:18;12.00;99.90
45619;DHT22;31343;47.520;19.144;2023-04-29T07:06:44;12.10;99.90
45619;DHT22;31343;47.520;19.144;2023-04-29T07:09:12;12.10;99.90
45619;DHT22;31343;47.520;19.144;2023-04-29T07:11:39;12.20;99.90
45619;DHT22;31343;47.520;19.144;2023-04-29T07:14:05;12.30;99.90
45619;DHT22;31343;47.520;19.144;2023-04-29T07:16:31;12.30;99.90
45619;DHT22;31343;47.520;19.144;2023-04-29T07:18:58;12.40;99.90
45619;DHT22;31343;47.520;19.144;2023-04-29T07:21:24;12.50;99.90
45619;DHT22;31343;47.520;19.144;2023-04-29T07:23:49;12.50;99.90
45619;DHT22;31343;47.520;19.144;2023-04-29T07:26:16;12.70;99.90
45619;DHT22;31343;47.520;19.144;2023-04-29T07:28:42;12.80;99.90
45619;DHT22;31343;47.520;19.144;2023-04-29T07:31:09;12.80;99.90
45619;DHT22;31343;47.520;19.144;2023-04-29T07:33:36;12.70;98.60
45619;DHT22;31343;47.520;19.144;2023-04-29T07:36:02;12.70;99.20
45619;DHT22;31343;47.520;19.144;2023-04-29T07:38:28;12.70;99.90
45619;DHT22;31343;47.520;19.144;2023-04-29T07:40:55;12.80;99.10
45619;DHT22;31343;47.520;19.144;2023-04-29T07:43:20;12.70;98.50
45619;DHT22;31343;47.520;19.144;2023-04-29T07:45:47;12.70;98.50
45619;DHT22;31343;47.520;19.144;2023-04-29T07:48:13;12.70;98.50
45619;DHT22;31343;47.520;19.144;2023-04-29T07:50:39;12.60;98.40
45619;DHT22;31343;47.520;19.144;2023-04-29T07:53:05;12.60;98.60
45619;DHT22;31343;47.520;19.144;2023-04-29T07:55:31;12.70;98.60
45619;DHT22;31343;47.520;19.144;2023-04-29T07:57:57;12.90;98.50
45619;DHT22;31343;47.520;19.144;2023-04-29T08:00:24;13.00;97.70
45619;DHT22;31343;47.520;19.144;2023-04-29T08:02:53;13.10;97.30
45619;DHT22;31343;47.520;19.144;2023-04-29T08:05:20;13.10;97.50
45619;DHT22;31343;47.520;19.144;2023-04-29T08:07:47;13.10;97.50
45619;DHT22;31343;47.520;19.144;2023-04-29T08:10:13;13.10;97.00
45619;DHT22;31343;47.520;19.144;2023-04-29T08:12:39;13.10;97.10
45619;DHT22;31343;47.520;19.144;2023-04-29T08:15:06;13.20;97.10
45619;DHT22;31343;47.520;19.144;2023-04-29T08:17:32;13.30;96.90
45619;DHT22;31343;47.520;19.144;2023-04-29T08:19:57;13.40;96.50
45619;DHT22;31343;47.520;19.144;2023-04-29T08:22:23;13.70;97.20
45619;DHT22;31343;47.520;19.144;2023-04-29T08:24:49;13.90;95.60
45619;DHT22;31343;47.520;19.144;2023-04-29T08:27:15;13.80;94.90
45619;DHT22;31343;47.520;19.144;2023-04-29T08:29:41;13.70;94.70
45619;DHT22;31343;47.520;19.144;2023-04-29T08:32:07;13.70;94.80
45619;DHT22;31343;47.520;19.144;2023-04-29T08:34:33;13.70;94.90
45619;DHT22;31343;47.520;19.144;2023-04-29T08:37:01;14.00;94.60
45619;DHT22;31343;47.520;19.144;2023-04-29T08:39:30;14.10;94.10
45619;DHT22;31343;47.520;19.144;2023-04-29T08:41:59;14.20;94.30
45619;DHT22;31343;47.520;19.144;2023-04-29T08:44:25;14.40;94.10
45619;DHT22;31343;47.520;19.144;2023-04-29T08:46:52;14.40;93.30
45619;DHT22;31343;47.520;19.144;2023-04-29T08:49:18;14.30;94.10
45619;DHT22;31343;47.520;19.144;2023-04-29T08:51:46;14.40;94.50
45619;DHT22;31343;47.520;19.144;2023-04-29T08:54:12;14.40;94.00
45619;DHT22;31343;47.520;19.144;2023-04-29T08:56:38;14.50;93.60
45619;DHT22;31343;47.520;19.144;2023-04-29T08:59:08;14.50;93.30
45619;DHT22;31343;47.520;19.144;2023-04-29T09:01:35;14.70;92.70
45619;DHT22;31343;47.520;19.144;2023-04-29T09:06:47;14.80;92.50
45619;DHT22;31343;47.520;19.144;2023-04-29T09:09:13;14.90;92.50
45619;DHT22;31343;47.520;19.144;2023-04-29T09:11:40;14.80;92.30
45619;DHT22;31343;47.520;19.144;2023-04-29T09:14:05;14.90;91.70
45619;DHT22;31343;47.520;19.144;2023-04-29T09:16:32;14.80;91.00
45619;DHT22;31343;47.520;19.144;2023-04-29T09:18:59;14.80;90.90
45619;DHT22;31343;47.520;19.144;2023-04-29T09:21:27;14.80;90.60
45619;DHT22;31343;47.520;19.144;2023-04-29T09:23:58;14.90;91.20
45619;DHT22;31343;47.520;19.144;2023-04-29T09:26:25;15.00;90.40
45619;DHT22;31343;47.520;19.144;2023-04-29T09:29:11;14.90;90.30
45619;DHT22;31343;47.520;19.144;2023-04-29T09:31:38;15.00;90.30
45619;DHT22;31343;47.520;19.144;2023-04-29T09:34:04;15.00;89.10
45619;DHT22;31343;47.520;19.144;2023-04-29T09:36:49;15.00;89.30
45619;DHT22;31343;47.520;19.144;2023-04-29T09:39:17;15.00;90.10
45619;DHT22;31343;47.520;19.144;2023-04-29T09:48:10;15.10;89.40
45619;DHT22;31343;47.520;19.144;2023-04-29T09:54:46;15.40;87.80
45619;DHT22;31343;47.520;19.144;2023-04-29T10:01:28;15.50;86.40
45619;DHT22;31343;47.520;19.144;2023-04-29T10:04:53;15.30;85.50
45619;DHT22;31343;47.520;19.144;2023-04-29T10:08:06;15.30;84.70
45619;DHT22;31343;47.520;19.144;2023-04-29T10:24:06;15.50;84.70
45619;DHT22;31343;47.520;19.144;2023-04-29T10:27:30;15.60;84.50
45619;DHT22;31343;47.520;19.144;2023-04-29T10:30:42;15.60;85.30
45619;DHT22;31343;47.520;19.144;2023-04-29T10:33:59;15.80;85.90
45619;DHT22;31343;47.520;19.144;2023-04-29T10:43:34;16.00;83.30
45619;DHT22;31343;47.520;19.144;2023-04-29T11:14:07;16.90;81.60
45619;DHT22;31343;47.520;19.144;2023-04-29T11:16:36;17.00;81.70
45619;DHT22;31343;47.520;19.144;2023-04-29T11:19:08;16.60;82.60
45619;DHT22;31343;47.520;19.144;2023-04-29T11:21:36;16.70;83.90
45619;DHT22;31343;47.520;19.144;2023-04-29T11:24:05;16.90;84.20
45619;DHT22;31343;47.520;19.144;2023-04-29T11:26:35;16.90;84.30
45619;DHT22;31343;47.520;19.144;2023-04-29T11:29:01;17.30;85.40
45619;DHT22;31343;47.520;19.144;2023-04-29T11:31:30;18.10;83.20
45619;DHT22;31343;47.520;19.144;2023-04-29T11:33:57;18.50;80.30
45619;DHT22;31343;47.520;19.144;2023-04-29T11:36:23;18.30;80.30
45619;DHT22;31343;47.520;19.144;2023-04-29T11:38:49;18.30;80.00
45619;DHT22;31343;47.520;19.144;2023-04-29T11:41:14;18.60;81.10
45619;DHT22;31343;47.520;19.144;2023-04-29T11:43:40;18.60;80.00
45619;DHT22;31343;47.520;19.144;2023-04-29T11:46:14;18.70;79.70
45619;DHT22;31343;47.520;19.144;2023-04-29T11:48:47;18.90;79.10
45619;DHT22;31343;47.520;19.144;2023-04-29T11:51:15;19.00;78.70
45619;DHT22;31343;47.520;19.144;2023-04-29T11:53:41;18.60;79.80
45619;DHT22;31343;47.520;19.144;2023-04-29T11:56:08;18.90;79.90
45619;DHT22;31343;47.520;19.144;2023-04-29T11:58:35;19.60;78.50
45619;DHT22;31343;47.520;19.144;2023-04-29T12:01:02;20.10;78.20
45619;DHT22;31343;47.520;19.144;2023-04-29T12:03:30;20.40;76.60
45619;DHT22;31343;47.520;19.144;2023-04-29T12:05:56;20.80;75.60
45619;DHT22;31343;47.520;19.144;2023-04-29T12:08:26;21.50;74.50
45619;DHT22;31343;47.520;19.144;2023-04-29T12:10:55;22.60;72.50
45619;DHT22;31343;47.520;19.144;2023-04-29T12:13:23;22.70;71.50
45619;DHT22;31343;47.520;19.144;2023-04-29T12:15:52;22.30;70.80
45619;DHT22;31343;47.520;19.144;2023-04-29T12:18:19;21.90;72.00
45619;DHT22;31343;47.520;19.144;2023-04-29T12:20:47;21.30;71.60
45619;DHT22;31343;47.520;19.144;2023-04-29T12:23:18;20.90;72.10
45619;DHT22;31343;47.520;19.144;2023-04-29T12:25:58;21.60;72.50
45619;DHT22;31343;47.520;19.144;2023-04-29T12:28:24;21.00;73.90
45619;DHT22;31343;47.520;19.144;2023-04-29T12:30:51;21.60;73.40
45619;DHT22;31343;47.520;19.144;2023-04-29T12:33:28;20.90;73.50
45619;DHT22;31343;47.520;19.144;2023-04-29T12:35:56;21.70;73.90
45619;DHT22;31343;47.520;19.144;2023-04-29T12:38:25;21.50;72.40
45619;DHT22;31343;47.520;19.144;2023-04-29T12:40:52;21.50;72.40
45619;DHT22;31343;47.520;19.144;2023-04-29T12:43:18;21.00;73.50
45619;DHT22;31343;47.520;19.144;2023-04-29T12:45:45;20.40;73.60
45619;DHT22;31343;47.520;19.144;2023-04-29T12:48:11;20.10;74.00
45619;DHT22;31343;47.520;19.144;2023-04-29T12:50:38;19.50;75.50
45619;DHT22;31343;47.520;19.144;2023-04-29T12:53:06;19.60;76.00
45619;DHT22;31343;47.520;19.144;2023-04-29T12:55:33;19.70;75.50
45619;DHT22;31343;47.520;19.144;2023-04-29T12:58:01;19.80;75.50
45619;DHT22;31343;47.520;19.144;2023-04-29T13:00:27;20.50;77.30
45619;DHT22;31343;47.520;19.144;2023-04-29T13:02:52;21.10;75.60
45619;DHT22;31343;47.520;19.144;2023-04-29T13:05:18;21.40;74.20
45619;DHT22;31343;47.520;19.144;2023-04-29T13:07:45;21.60;74.30
45619;DHT22;31343;47.520;19.144;2023-04-29T13:10:11;21.90;74.50
45619;DHT22;31343;47.520;19.144;2023-04-29T13:12:38;21.90;73.40
45619;DHT22;31343;47.520;19.144;2023-04-29T13:15:05;21.70;72.40
45619;DHT22;31343;47.520;19.144;2023-04-29T13:17:32;21.40;73.50
45619;DHT22;31343;47.520;19.144;2023-04-29T13:19:58;21.50;75.00
45619;DHT22;31343;47.520;19.144;2023-04-29T13:22:23;21.70;73.20
45619;DHT22;31343;47.520;19.144;2023-04-29T13:24:49;21.60;72.80
45619;DHT22;31343;47.520;19.144;2023-04-29T13:27:15;21.30;72.90
45619;DHT22;31343;47.520;19.144;2023-04-29T13:29:40;21.30;74.70
45619;DHT22;31343;47.520;19.144;2023-04-29T13:32:06;21.40;73.60
45619;DHT22;31343;47.520;19.144;2023-04-29T13:34:33;21.30;74.50
45619;DHT22;31343;47.520;19.144;2023-04-29T13:36:59;21.50;74.10
45619;DHT22;31343;47.520;19.144;2023-04-29T13:39:25;21.50;73.30
45619;DHT22;31343;47.520;19.144;2023-04-29T13:41:50;21.30;72.50
45619;DHT22;31343;47.520;19.144;2023-04-29T13:44:16;20.80;73.20
45619;DHT22;31343;47.520;19.144;2023-04-29T13:46:43;20.70;73.70
45619;DHT22;31343;47.520;19.144;2023-04-29T13:49:10;20.70;74.80
45619;DHT22;31343;47.520;19.144;2023-04-29T13:51:36;20.90;74.70
45619;DHT22;31343;47.520;19.144;2023-04-29T13:54:02;20.90;73.90
45619;DHT22;31343;47.520;19.144;2023-04-29T13:56:28;20.90;73.70
45619;DHT22;31343;47.520;19.144;2023-04-29T13:58:54;20.40;74.30
45619;DHT22;31343;47.520;19.144;2023-04-29T14:01:19;20.20;75.00
45619;DHT22;31343;47.520;19.144;2023-04-29T14:03:47;20.10;76.50
45619;DHT22;31343;47.520;19.144;2023-04-29T14:06:13;20.40;77.00
45619;DHT22;31343;47.520;19.144;2023-04-29T14:08:39;20.10;75.10
45619;DHT22;31343;47.520;19.144;2023-04-29T14:11:05;19.50;76.10
45619;DHT22;31343;47.520;19.144;2023-04-29T14:13:31;19.70;76.70
45619;DHT22;31343;47.520;19.144;2023-04-29T14:15:57;20.00;76.80
45619;DHT22;31343;47.520;19.144;2023-04-29T14:18:24;20.30;78.10
45619;DHT22;31343;47.520;19.144;2023-04-29T14:20:51;20.20;75.60
45619;DHT22;31343;47.520;19.144;2023-04-29T14:23:19;20.30;76.10
45619;DHT22;31343;47.520;19.144;2023-04-29T14:25:44;20.40;75.60
45619;DHT22;31343;47.520;19.144;2023-04-29T14:28:10;20.30;75.70
45619;DHT22;31343;47.520;19.144;2023-04-29T14:30:37;20.30;77.50
45619;DHT22;31343;47.520;19.144;2023-04-29T14:33:02;20.50;77.60
45619;DHT22;31343;47.520;19.144;2023-04-29T14:35:29;20.70;77.40
45619;DHT22;31343;47.520;19.144;2023-04-29T14:37:56;20.90;76.00
45619;DHT22;31343;47.520;19.144;2023-04-29T14:40:21;20.90;76.00
45619;DHT22;31343;47.520;19.144;2023-04-29T14:42:47;20.60;74.70
45619;DHT22;31343;47.520;19.144;2023-04-29T14:45:13;20.30;76.20
45619;DHT22;31343;47.520;19.144;2023-04-29T14:47:38;20.40;76.90
45619;DHT22;31343;47.520;19.144;2023-04-29T14:50:05;20.20;76.70
45619;DHT22;31343;47.520;19.144;2023-04-29T14:52:31;20.20;77.60
45619;DHT22;31343;47.520;19.144;2023-04-29T14:54:57;20.20;76.80
45619;DHT22;31343;47.520;19.144;2023-04-29T14:57:23;19.70;77.50
45619;DHT22;31343;47.520;19.144;2023-04-29T14:59:48;19.60;77.90
45619;DHT22;31343;47.520;19.144;2023-04-29T15:02:14;19.80;78.70
45619;DHT22;31343;47.520;19.144;2023-04-29T15:04:40;20.00;77.70
45619;DHT22;31343;47.520;19.144;2023-04-29T15:07:11;19.60;77.30
45619;DHT22;31343;47.520;19.144;2023-04-29T15:09:38;19.60;79.20
45619;DHT22;31343;47.520;19.144;2023-04-29T15:12:04;19.80;78.60
45619;DHT22;31343;47.520;19.144;2023-04-29T15:14:31;19.70;77.60
45619;DHT22;31343;47.520;19.144;2023-04-29T15:16:57;19.70;78.40
45619;DHT22;31343;47.520;19.144;2023-04-29T15:19:23;19.90;79.70
45619;DHT22;31343;47.520;19.144;2023-04-29T15:21:50;20.00;79.50
45619;DHT22;31343;47.520;19.144;2023-04-29T15:24:17;20.10;77.80
45619;DHT22;31343;47.520;19.144;2023-04-29T15:26:44;19.80;77.30
45619;DHT22;31343;47.520;19.144;2023-04-29T15:29:11;19.70;77.50
45619;DHT22;31343;47.520;19.144;2023-04-29T15:31:37;19.70;79.50
45619;DHT22;31343;47.520;19.144;2023-04-29T15:34:03;19.80;80.30
45619;DHT22;31343;47.520;19.144;2023-04-29T15:36:30;19.90;80.30
45619;DHT22;31343;47.520;19.144;2023-04-29T15:38:57;20.00;78.90
45619;DHT22;31343;47.520;19.144;2023-04-29T15:41:23;20.00;78.30
45619;DHT22;31343;47.520;19.144;2023-04-29T15:43:52;20.00;78.10
45619;DHT22;31343;47.520;19.144;2023-04-29T15:46:20;19.90;79.20
45619;DHT22;31343;47.520;19.144;2023-04-29T15:48:46;20.00;79.90
45619;DHT22;31343;47.520;19.144;2023-04-29T15:51:12;19.90;79.50
45619;DHT22;31343;47.520;19.144;2023-04-29T15:53:41;19.80;79.00
45619;DHT22;31343;47.520;19.144;2023-04-29T15:56:08;19.60;78.90
45619;DHT22;31343;47.520;19.144;2023-04-29T15:58:35;19.40;79.30
45619;DHT22;31343;47.520;19.144;2023-04-29T16:01:01;19.40;79.80
45619;DHT22;31343;47.520;19.144;2023-04-29T16:03:26;19.50;80.00
45619;DHT22;31343;47.520;19.144;2023-04-29T16:05:52;19.50;79.40
45619;DHT22;31343;47.520;19.144;2023-04-29T16:08:18;19.50;80.00
45619;DHT22;31343;47.520;19.144;2023-04-29T16:10:44;19.40;80.10
45619;DHT22;31343;47.520;19.144;2023-04-29T16:13:14;19.30;80.10
45619;DHT22;31343;47.520;19.144;2023-04-29T16:15:40;19.40;80.90
45619;DHT22;31343;47.520;19.144;2023-04-29T16:18:06;19.40;81.20
45619;DHT22;31343;47.520;19.144;2023-04-29T16:20:32;19.40;82.00
45619;DHT22;31343;47.520;19.144;2023-04-29T16:22:58;19.40;82.20
45619;DHT22;31343;47.520;19.144;2023-04-29T16:25:23;19.50;81.90
45619;DHT22;31343;47.520;19.144;2023-04-29T16:27:49;19.50;81.70
45619;DHT22;31343;47.520;19.144;2023-04-29T16:30:15;19.40;81.80
45619;DHT22;31343;47.520;19.144;2023-04-29T16:32:41;19.40;82.20